createdAt,value
2023-04-07T00:00:53.094Z,2.97
2023-04-07T00:03:55.136Z,2.60
2023-04-07T00:06:58.333Z,3.13
2023-04-07T00:09:59.997Z,2.42
2023-04-07T00:13:02.223Z,2.80
2023-04-07T00:16:03.979Z,2.83
2023-04-07T00:19:05.671Z,2.53
2023-04-07T00:22:08.628Z,2.42
2023-04-07T00:25:10.737Z,2.17
2023-04-07T00:28:12.401Z,2.38
2023-04-07T00:31:14.353Z,1.95
2023-04-07T00:34:16.186Z,2.42
2023-04-07T00:37:19.393Z,2.33
2023-04-07T00:40:21.055Z,1.92
2023-04-07T00:43:22.772Z,2.50
2023-04-07T00:46:24.633Z,2.25
2023-04-07T00:49:28.351Z,2.35
2023-04-07T00:52:32.525Z,2.03
2023-04-07T00:55:34.246Z,2.95
2023-04-07T00:58:35.927Z,1.92
2023-04-07T01:01:46.781Z,2.22
2023-04-07T01:04:53.107Z,2.42
2023-04-07T01:08:05.125Z,2.85
2023-04-07T01:11:13.155Z,2.03
2023-04-07T01:14:17.843Z,2.10
2023-04-07T01:17:25.945Z,2.03
2023-04-07T01:20:32.806Z,2.28
2023-04-07T01:24:01.560Z,2.15
2023-04-07T01:27:19.054Z,2.25
2023-04-07T01:30:24.810Z,2.17
2023-04-07T01:33:32.084Z,1.73
2023-04-07T01:36:34.398Z,2.03
2023-04-07T01:39:38.669Z,2.38
2023-04-07T01:42:42.288Z,1.98
2023-04-07T01:45:46.158Z,1.85
2023-04-07T01:48:49.482Z,1.98
2023-04-07T01:51:51.998Z,1.92
2023-04-07T01:54:54.441Z,2.25
2023-04-07T01:57:56.109Z,2.00
2023-04-07T02:00:59.931Z,2.05
2023-04-07T02:04:09.023Z,2.05
2023-04-07T02:07:18.923Z,1.90
2023-04-07T02:10:27.366Z,1.77
2023-04-07T02:13:35.297Z,2.00
2023-04-07T02:16:41.833Z,2.35
2023-04-07T02:19:45.081Z,2.30
2023-04-07T02:22:47.210Z,1.65
2023-04-07T02:25:49.945Z,2.25
2023-04-07T02:28:51.680Z,2.58
2023-04-07T02:31:56.685Z,1.90
2023-04-07T02:34:58.581Z,2.05
2023-04-07T02:38:00.494Z,2.25
2023-04-07T02:41:02.437Z,1.88
2023-04-07T02:44:04.849Z,2.30
2023-04-07T02:47:07.864Z,2.47
2023-04-07T02:50:10.357Z,1.80
2023-04-07T02:53:12.090Z,2.00
2023-04-07T02:56:13.967Z,1.88
2023-04-07T02:59:15.780Z,2.15
2023-04-07T03:02:20.183Z,2.20
2023-04-07T03:05:22.444Z,2.10
2023-04-07T03:08:24.208Z,2.00
2023-04-07T03:11:27.201Z,2.03
2023-04-07T03:14:29.835Z,1.80
2023-04-07T03:17:33.562Z,1.92
2023-04-07T03:20:35.293Z,1.98
2023-04-07T03:23:43.336Z,2.25
2023-04-07T03:26:45.019Z,2.10
2023-04-07T03:29:54.560Z,2.25
2023-04-07T03:32:58.357Z,1.80
2023-04-07T03:36:00.446Z,1.50
2023-04-07T03:39:04.121Z,2.50
2023-04-07T03:42:05.966Z,2.08
2023-04-07T03:45:09.638Z,2.60
2023-04-07T03:48:18.390Z,2.50
2023-04-07T03:51:31.219Z,1.92
2023-04-07T03:54:35.548Z,2.05
2023-04-07T03:57:38.078Z,2.10
2023-04-07T04:00:40.624Z,2.20
2023-04-07T04:03:47.024Z,2.60
2023-04-07T04:07:18.151Z,1.85
2023-04-07T04:10:23.764Z,2.30
2023-04-07T04:13:28.130Z,2.28
2023-04-07T04:19:40.348Z,1.80
2023-04-07T04:22:50.325Z,1.73
2023-04-07T04:25:52.754Z,2.05
2023-04-07T04:28:54.676Z,2.28
2023-04-07T04:31:57.614Z,1.83
2023-04-07T04:35:01.942Z,1.98
2023-04-07T04:38:06.255Z,1.85
2023-04-07T04:41:08.752Z,2.03
2023-04-07T04:44:10.982Z,2.53
2023-04-07T04:47:17.821Z,2.38
2023-04-07T04:50:22.019Z,2.08
2023-04-07T04:53:25.265Z,2.13
2023-04-07T04:56:31.960Z,2.13
2023-04-07T04:59:34.264Z,2.28
2023-04-07T05:02:38.545Z,2.60
2023-04-07T05:05:47.519Z,2.08
2023-04-07T05:08:50.416Z,1.88
2023-04-07T05:11:55.886Z,1.80
2023-04-07T05:14:59.082Z,2.08
2023-04-07T05:18:01.011Z,2.50
2023-04-07T05:21:05.389Z,2.08
2023-04-07T05:24:10.025Z,2.50
2023-04-07T05:27:12.607Z,1.95
2023-04-07T05:30:16.049Z,2.10
2023-04-07T05:33:18.132Z,2.05
2023-04-07T05:36:25.829Z,1.92
2023-04-07T05:39:31.062Z,2.45
2023-04-07T05:42:33.586Z,1.80
2023-04-07T05:45:35.515Z,1.92
2023-04-07T05:48:37.529Z,2.10
2023-04-07T05:51:40.794Z,2.60
2023-04-07T05:54:46.470Z,2.00
2023-04-07T05:57:49.886Z,2.03
2023-04-07T06:00:55.098Z,2.25
2023-04-07T06:03:58.833Z,2.60
2023-04-07T06:07:03.683Z,2.40
2023-04-07T06:10:06.871Z,2.08
2023-04-07T06:13:08.639Z,2.30
2023-04-07T06:16:10.390Z,2.28
2023-04-07T06:19:12.726Z,1.88
2023-04-07T06:22:16.271Z,2.40
2023-04-07T06:25:18.092Z,1.98
2023-04-07T06:28:19.893Z,2.10
2023-04-07T06:31:21.776Z,2.47
2023-04-07T06:34:23.486Z,2.53
2023-04-07T06:37:26.461Z,2.00
2023-04-07T06:40:29.284Z,1.90
2023-04-07T06:43:31.425Z,1.85
2023-04-07T06:46:38.033Z,2.13
2023-04-07T06:49:39.961Z,2.40
2023-04-07T06:52:43.195Z,2.67
2023-04-07T06:55:44.919Z,1.98
2023-04-07T06:58:47.055Z,2.50
2023-04-07T07:01:49.399Z,2.47
2023-04-07T07:04:51.192Z,1.88
2023-04-07T07:07:54.704Z,2.10
2023-04-07T07:10:56.661Z,2.05
2023-04-07T07:13:58.494Z,2.22
2023-04-07T07:17:01.268Z,2.25
2023-04-07T07:20:03.284Z,2.83
2023-04-07T07:23:06.448Z,2.42
2023-04-07T07:26:08.412Z,2.25
2023-04-07T07:29:10.220Z,2.20
2023-04-07T07:32:11.897Z,2.03
2023-04-07T07:35:13.743Z,2.40
2023-04-07T07:38:16.977Z,2.70
2023-04-07T07:41:18.966Z,2.75
2023-04-07T07:44:20.679Z,2.25
2023-04-07T07:47:23.303Z,3.15
2023-04-07T07:50:25.589Z,2.38
2023-04-07T07:53:28.622Z,2.28
2023-04-07T07:56:30.407Z,2.38
2023-04-07T07:59:32.169Z,2.47
2023-04-07T08:02:34.023Z,2.15
2023-04-07T08:05:35.923Z,2.83
2023-04-07T08:08:38.955Z,2.42
2023-04-07T08:11:40.709Z,2.47
2023-04-07T08:14:42.397Z,2.03
2023-04-07T08:17:44.177Z,3.03
2023-04-07T08:20:46.795Z,3.03
2023-04-07T08:23:50.181Z,2.83
2023-04-07T08:26:52.147Z,2.60
2023-04-07T08:29:59.422Z,2.88
2023-04-07T08:33:01.395Z,2.50
2023-04-07T08:36:03.460Z,2.70
2023-04-07T08:39:07.010Z,2.85
2023-04-07T08:42:11.602Z,2.72
2023-04-07T08:45:13.713Z,2.67
2023-04-07T08:48:17.766Z,3.10
2023-04-07T08:51:27.325Z,2.42
2023-04-07T08:54:30.503Z,3.17
2023-04-07T08:57:33.141Z,2.58
2023-04-07T09:00:35.113Z,3.00
2023-04-07T09:03:38.210Z,3.00
2023-04-07T09:06:40.047Z,2.42
2023-04-07T09:09:43.132Z,2.75
2023-04-07T09:12:44.803Z,2.25
2023-04-07T09:15:46.623Z,2.42
2023-04-07T09:18:48.432Z,2.67
2023-04-07T09:21:51.440Z,2.35
2023-04-07T09:24:54.418Z,2.58
2023-04-07T09:27:57.844Z,2.58
2023-04-07T09:30:59.636Z,2.33
2023-04-07T09:34:01.820Z,2.40
2023-04-07T09:37:09.675Z,2.65
2023-04-07T09:40:27.298Z,2.00
2023-04-07T09:43:29.322Z,1.83
2023-04-07T09:46:32.301Z,2.00
2023-04-07T09:49:48.009Z,2.65
2023-04-07T09:52:52.363Z,2.20
2023-04-07T09:55:55.930Z,2.55
2023-04-07T09:58:57.873Z,2.22
2023-04-07T10:02:00.945Z,2.42
2023-04-07T10:05:03.609Z,1.98
2023-04-07T10:08:06.924Z,2.50
2023-04-07T10:11:10.381Z,2.63
2023-04-07T10:14:13.077Z,2.45
2023-04-07T10:17:19.166Z,2.30
2023-04-07T10:20:22.770Z,1.65
2023-04-07T10:23:28.948Z,1.80
2023-04-07T10:26:35.739Z,1.77
2023-04-07T10:29:41.722Z,1.48
2023-04-07T10:32:47.685Z,1.77
2023-04-07T10:36:06.894Z,2.10
2023-04-07T10:39:21.940Z,1.80
2023-04-07T10:42:47.716Z,1.85
2023-04-07T10:45:56.204Z,2.05
2023-04-07T10:49:09.712Z,2.10
2023-04-07T10:52:23.189Z,2.00
2023-04-07T10:55:36.709Z,2.08
2023-04-07T10:58:39.777Z,2.42
2023-04-07T11:01:41.517Z,2.15
2023-04-07T11:04:46.947Z,2.40
2023-04-07T11:07:52.171Z,1.92
2023-04-07T11:10:53.967Z,1.95
2023-04-07T11:13:57.346Z,2.08
2023-04-07T11:17:01.520Z,1.90
2023-04-07T11:20:03.887Z,2.13
2023-04-07T11:23:05.841Z,1.90
2023-04-07T11:26:09.417Z,2.65
2023-04-07T11:29:12.763Z,2.22
2023-04-07T11:32:14.628Z,2.28
2023-04-07T11:35:17.034Z,2.63
2023-04-07T11:38:19.621Z,2.35
2023-04-07T11:41:21.660Z,1.20
2023-04-07T11:44:29.274Z,1.30
2023-04-07T11:47:34.816Z,1.27
2023-04-07T11:50:41.197Z,0.93
2023-04-07T11:53:43.565Z,1.58
2023-04-07T11:56:47.515Z,1.38
2023-04-07T11:59:50.813Z,1.30
2023-04-07T12:02:53.219Z,1.17
2023-04-07T12:05:55.606Z,1.25
2023-04-07T12:08:57.436Z,1.20
2023-04-07T12:11:59.379Z,1.38
2023-04-07T12:15:02.895Z,1.35
2023-04-07T12:21:26.681Z,0.98
2023-04-07T12:24:28.584Z,1.23
2023-04-07T12:27:42.144Z,0.93
2023-04-07T12:30:46.944Z,1.40
2023-04-07T12:33:48.969Z,1.40
2023-04-07T12:36:51.581Z,1.48
2023-04-07T12:39:53.405Z,1.27
2023-04-07T12:42:58.120Z,1.50
2023-04-07T12:46:01.363Z,1.83
2023-04-07T12:49:03.454Z,1.65
2023-04-07T12:52:06.901Z,1.50
2023-04-07T12:55:29.002Z,1.55
2023-04-07T12:58:31.407Z,1.75
2023-04-07T13:01:35.603Z,1.58
2023-04-07T13:04:40.585Z,1.75
2023-04-07T13:07:42.677Z,1.27
2023-04-07T13:10:44.363Z,1.70
2023-04-07T13:13:46.129Z,1.35
2023-04-07T13:16:50.380Z,1.42
2023-04-07T13:19:52.599Z,1.38
2023-04-07T13:26:02.929Z,1.27
2023-04-07T13:29:04.832Z,1.40
2023-04-07T13:32:09.241Z,1.00
2023-04-07T13:35:13.647Z,0.93
2023-04-07T13:38:15.566Z,1.00
2023-04-07T13:41:17.465Z,0.98
2023-04-07T13:44:19.448Z,1.17
2023-04-07T13:47:22.734Z,1.27
2023-04-07T13:50:24.880Z,1.45
2023-04-07T13:53:26.473Z,0.63
2023-04-07T13:56:28.265Z,0.90
2023-04-07T13:59:30.066Z,1.25
2023-04-07T14:02:34.247Z,0.93
2023-04-07T14:05:35.988Z,1.25
2023-04-07T14:08:37.740Z,1.40
2023-04-07T14:11:39.583Z,1.05
2023-04-07T14:14:41.698Z,1.17
2023-04-07T14:17:44.738Z,0.98
2023-04-07T14:20:47.085Z,0.70
2023-04-07T14:23:48.813Z,0.90
2023-04-07T14:26:51.155Z,0.77
2023-04-07T14:29:54.019Z,0.90
2023-04-07T14:32:57.022Z,0.60
2023-04-07T14:35:58.838Z,1.10
2023-04-07T14:39:01.186Z,0.63
2023-04-07T14:42:03.144Z,0.55
2023-04-07T14:45:05.784Z,0.73
2023-04-07T14:48:08.845Z,1.00
2023-04-07T14:51:12.410Z,1.00
2023-04-07T14:54:13.984Z,1.20
2023-04-07T14:57:16.614Z,1.00
2023-04-07T15:00:18.887Z,0.65
2023-04-07T15:03:22.059Z,1.40
2023-04-07T15:06:23.988Z,1.13
2023-04-07T15:09:25.686Z,1.02
2023-04-07T15:12:29.683Z,1.10
2023-04-07T15:15:31.352Z,1.38
2023-04-07T15:18:34.902Z,1.00
2023-04-07T15:21:36.858Z,1.00
2023-04-07T15:24:38.507Z,1.10
2023-04-07T15:27:40.303Z,1.08
2023-04-07T15:30:42.810Z,1.08
2023-04-07T15:33:46.188Z,1.00
2023-04-07T15:36:48.083Z,0.70
2023-04-07T15:39:50.989Z,0.88
2023-04-07T15:42:52.758Z,0.70
2023-04-07T15:45:55.788Z,0.88
2023-04-07T15:48:58.989Z,0.95
2023-04-07T15:52:03.617Z,0.80
2023-04-07T15:55:06.021Z,0.80
2023-04-07T15:58:08.480Z,0.73
2023-04-07T16:01:10.212Z,1.13
2023-04-07T16:04:13.479Z,0.93
2023-04-07T16:07:15.240Z,1.10
2023-04-07T16:10:19.770Z,1.00
2023-04-07T16:13:21.574Z,1.00
2023-04-07T16:16:23.632Z,1.10
2023-04-07T16:19:27.085Z,0.75
2023-04-07T16:22:28.766Z,0.90
2023-04-07T16:25:30.797Z,1.58
2023-04-07T16:28:32.560Z,1.15
2023-04-07T16:31:34.318Z,1.13
2023-04-07T16:34:37.482Z,0.77
2023-04-07T16:37:39.278Z,0.82
2023-04-07T16:40:42.724Z,0.90
2023-04-07T16:43:47.771Z,0.98
2023-04-07T16:46:49.680Z,1.17
2023-04-07T16:49:52.863Z,0.82
2023-04-07T16:52:57.225Z,0.95
2023-04-07T16:55:58.920Z,1.25
2023-04-07T16:59:02.710Z,1.17
2023-04-07T17:02:11.036Z,1.00
2023-04-07T17:05:14.534Z,1.15
2023-04-07T17:08:16.297Z,1.17
2023-04-07T17:11:18.042Z,1.08
2023-04-07T17:14:20.639Z,1.10
2023-04-07T17:17:22.778Z,0.98
2023-04-07T17:20:27.311Z,0.80
2023-04-07T17:23:29.249Z,0.63
2023-04-07T17:26:31.346Z,0.75
2023-04-07T17:29:33.669Z,1.00
2023-04-07T17:32:35.413Z,1.10
2023-04-07T17:35:38.788Z,0.77
2023-04-07T17:38:40.997Z,0.65
2023-04-07T17:41:42.761Z,1.23
2023-04-07T17:44:44.635Z,1.67
2023-04-07T17:49:04.587Z,1.40
2023-04-07T17:52:06.308Z,1.40
2023-04-07T17:55:09.008Z,1.30
2023-04-07T17:58:10.679Z,1.23
2023-04-07T18:01:12.767Z,1.20
2023-04-07T18:04:16.878Z,1.20
2023-04-07T18:07:18.750Z,1.13
2023-04-07T18:10:20.795Z,1.73
2023-04-07T18:13:22.456Z,1.70
2023-04-07T18:16:24.473Z,1.15
2023-04-07T18:19:29.989Z,0.90
2023-04-07T18:22:32.915Z,0.88
2023-04-07T18:25:35.055Z,0.60
2023-04-07T18:28:36.925Z,1.08
2023-04-07T18:31:39.270Z,0.77
2023-04-07T18:34:42.687Z,0.88
2023-04-07T18:37:44.522Z,1.05
2023-04-07T18:40:46.269Z,0.55
2023-04-07T18:43:48.588Z,0.70
2023-04-07T18:46:50.828Z,0.60
2023-04-07T18:49:54.041Z,0.50
2023-04-07T18:52:55.753Z,0.60
2023-04-07T18:55:57.488Z,0.70
2023-04-07T18:58:59.333Z,0.65
2023-04-07T19:02:01.388Z,0.70
2023-04-07T19:05:05.497Z,0.98
2023-04-07T19:08:07.689Z,0.63
2023-04-07T19:11:10.014Z,0.90
2023-04-07T19:14:12.009Z,0.73
2023-04-07T19:17:13.797Z,0.90
2023-04-07T19:20:16.960Z,0.50
2023-04-07T19:23:18.620Z,0.50
2023-04-07T19:26:21.533Z,0.50
2023-04-07T19:29:23.431Z,0.80
2023-04-07T19:32:25.127Z,0.85
2023-04-07T19:35:28.481Z,0.65
2023-04-07T19:38:30.306Z,0.75
2023-04-07T19:41:33.005Z,0.70
2023-04-07T19:44:35.361Z,0.90
2023-04-07T19:47:37.635Z,0.80
2023-04-07T19:50:43.763Z,0.50
2023-04-07T19:53:46.381Z,0.75
2023-04-07T19:56:48.149Z,0.65
2023-04-07T19:59:50.016Z,0.82
2023-04-07T20:02:51.961Z,0.70
2023-04-07T20:05:55.236Z,0.77
2023-04-07T20:08:58.622Z,1.13
2023-04-07T20:12:01.704Z,1.33
2023-04-07T20:15:06.996Z,1.42
2023-04-07T20:18:09.034Z,1.17
2023-04-07T20:21:12.536Z,1.95
2023-04-07T20:24:14.932Z,1.60
2023-04-07T20:27:18.232Z,1.63
2023-04-07T20:30:20.310Z,1.10
2023-04-07T20:33:22.082Z,1.17
2023-04-07T20:36:25.892Z,1.00
2023-04-07T20:39:27.637Z,0.93
2023-04-07T20:42:29.360Z,1.00
2023-04-07T20:45:31.232Z,0.70
2023-04-07T20:48:33.003Z,0.70
2023-04-07T20:51:36.646Z,0.95
2023-04-07T20:54:38.624Z,0.70
2023-04-07T20:57:42.008Z,0.70
2023-04-07T21:00:44.957Z,0.85
2023-04-07T21:03:47.177Z,1.10
2023-04-07T21:06:50.266Z,0.75
2023-04-07T21:09:52.243Z,1.13
2023-04-07T21:12:53.909Z,0.90
2023-04-07T21:15:57.247Z,1.08
2023-04-07T21:18:59.487Z,1.23
2023-04-07T21:22:03.926Z,0.80
2023-04-07T21:25:07.106Z,1.00
2023-04-07T21:28:08.859Z,1.08
2023-04-07T21:31:10.865Z,0.75
2023-04-07T21:34:12.596Z,1.05
2023-04-07T21:37:15.772Z,1.02
2023-04-07T21:40:17.657Z,0.95
2023-04-07T21:43:19.950Z,1.27
2023-04-07T21:46:21.976Z,1.27
2023-04-07T21:49:25.237Z,1.00
2023-04-07T21:52:28.304Z,1.02
2023-04-07T21:55:29.992Z,0.80
2023-04-07T21:58:31.632Z,0.90
2023-04-07T22:01:33.380Z,1.20
2023-04-07T22:04:36.014Z,1.17
2023-04-07T22:07:39.470Z,0.93
2023-04-07T22:10:41.228Z,1.20
2023-04-07T22:13:43.073Z,1.10
2023-04-07T22:16:44.856Z,0.70
2023-04-07T22:19:46.485Z,1.00
2023-04-07T22:22:49.558Z,0.90
2023-04-07T22:25:51.243Z,1.23
2023-04-07T22:28:52.833Z,1.15
2023-04-07T22:31:54.766Z,1.20
2023-04-07T22:34:56.551Z,1.08
2023-04-07T22:37:59.489Z,1.27
2023-04-07T22:41:01.580Z,1.10
2023-04-07T22:44:03.480Z,1.15
2023-04-07T22:47:05.300Z,1.00
2023-04-07T22:50:07.935Z,1.20
2023-04-07T22:53:11.272Z,1.33
2023-04-07T22:56:12.944Z,1.15
2023-04-07T22:59:14.560Z,1.02
2023-04-07T23:02:16.461Z,1.25
2023-04-07T23:05:18.541Z,1.30
2023-04-07T23:08:21.730Z,0.95
2023-04-07T23:11:23.372Z,1.08
2023-04-07T23:14:25.317Z,1.00
2023-04-07T23:17:27.416Z,1.00
2023-04-07T23:20:29.090Z,1.25
2023-04-07T23:23:32.315Z,1.00
2023-04-07T23:26:34.040Z,1.35
2023-04-07T23:29:36.227Z,1.15
2023-04-07T23:32:38.011Z,1.50
2023-04-07T23:35:39.781Z,1.10
2023-04-07T23:38:42.809Z,1.10
2023-04-07T23:41:44.451Z,1.38
2023-04-07T23:44:46.323Z,1.00
2023-04-07T23:47:48.178Z,0.88
2023-04-07T23:50:51.494Z,1.20
2023-04-07T23:53:54.528Z,1.00
2023-04-07T23:56:57.093Z,1.17
2023-04-07T23:59:58.825Z,1.15
